sensor_id;sensor_type;location;lat;lon;timestamp;temperature;humidity
21115;DHT22;10715;48.546;9.896;2023-11-21T00:00:52;5.90;99.90
21115;DHT22;10715;48.546;9.896;2023-11-21T00:03:20;5.90;99.90
21115;DHT22;10715;48.546;9.896;2023-11-21T00:05:49;5.80;99.90
21115;DHT22;10715;48.546;9.896;2023-11-21T00:08:21;5.80;99.90
21115;DHT22;10715;48.546;9.896;2023-11-21T00:10:51;5.80;99.90
21115;DHT22;10715;48.546;9.896;2023-11-21T00:13:20;5.80;99.90
21115;DHT22;10715;48.546;9.896;2023-11-21T00:15:51;5.80;99.90
21115;DHT22;10715;48.546;9.896;2023-11-21T00:18:21;5.70;99.90
21115;DHT22;10715;48.546;9.896;2023-11-21T00:20:50;5.80;99.90
21115;DHT22;10715;48.546;9.896;2023-11-21T00:23:17;5.80;99.90
21115;DHT22;10715;48.546;9.896;2023-11-21T00:25:45;5.80;99.90
21115;DHT22;10715;48.546;9.896;2023-11-21T00:28:20;5.80;99.90
21115;DHT22;10715;48.546;9.896;2023-11-21T00:30:46;5.80;99.90
21115;DHT22;10715;48.546;9.896;2023-11-21T00:33:12;5.80;99.90
21115;DHT22;10715;48.546;9.896;2023-11-21T00:35:47;5.70;99.90
21115;DHT22;10715;48.546;9.896;2023-11-21T00:38:14;5.80;99.90
21115;DHT22;10715;48.546;9.896;2023-11-21T00:40:41;5.80;99.90
21115;DHT22;10715;48.546;9.896;2023-11-21T00:43:07;5.80;99.90
21115;DHT22;10715;48.546;9.896;2023-11-21T00:45:38;5.80;99.90
21115;DHT22;10715;48.546;9.896;2023-11-21T00:48:06;5.70;99.90
21115;DHT22;10715;48.546;9.896;2023-11-21T00:50:45;5.70;99.90
21115;DHT22;10715;48.546;9.896;2023-11-21T00:53:19;5.70;99.90
21115;DHT22;10715;48.546;9.896;2023-11-21T00:56:02;5.70;99.90
21115;DHT22;10715;48.546;9.896;2023-11-21T00:58:32;5.60;99.90
21115;DHT22;10715;48.546;9.896;2023-11-21T01:01:00;5.70;99.90
21115;DHT22;10715;48.546;9.896;2023-11-21T01:03:40;5.60;99.90
21115;DHT22;10715;48.546;9.896;2023-11-21T01:06:07;5.60;99.90
21115;DHT22;10715;48.546;9.896;2023-11-21T01:08:37;5.60;99.90
21115;DHT22;10715;48.546;9.896;2023-11-21T01:11:16;5.60;99.90
21115;DHT22;10715;48.546;9.896;2023-11-21T01:13:44;5.60;99.90
21115;DHT22;10715;48.546;9.896;2023-11-21T01:16:21;5.50;99.90
21115;DHT22;10715;48.546;9.896;2023-11-21T01:18:59;5.50;99.90
21115;DHT22;10715;48.546;9.896;2023-11-21T01:21:31;5.50;99.90
21115;DHT22;10715;48.546;9.896;2023-11-21T01:24:00;5.40;99.90
21115;DHT22;10715;48.546;9.896;2023-11-21T01:26:26;5.40;99.90
21115;DHT22;10715;48.546;9.896;2023-11-21T01:28:53;5.40;99.90
21115;DHT22;10715;48.546;9.896;2023-11-21T01:31:32;5.40;99.90
21115;DHT22;10715;48.546;9.896;2023-11-21T01:33:59;5.40;99.90
21115;DHT22;10715;48.546;9.896;2023-11-21T01:36:46;5.40;99.90
21115;DHT22;10715;48.546;9.896;2023-11-21T01:39:15;5.40;99.90
21115;DHT22;10715;48.546;9.896;2023-11-21T01:42:07;5.40;99.90
21115;DHT22;10715;48.546;9.896;2023-11-21T01:44:33;5.40;99.90
21115;DHT22;10715;48.546;9.896;2023-11-21T01:46:59;5.40;99.90
21115;DHT22;10715;48.546;9.896;2023-11-21T01:49:25;5.40;99.90
21115;DHT22;10715;48.546;9.896;2023-11-21T01:51:51;5.40;99.90
21115;DHT22;10715;48.546;9.896;2023-11-21T01:54:17;5.40;99.90
21115;DHT22;10715;48.546;9.896;2023-11-21T01:56:47;5.40;99.90
21115;DHT22;10715;48.546;9.896;2023-11-21T01:59:21;5.40;99.90
21115;DHT22;10715;48.546;9.896;2023-11-21T02:01:49;5.40;99.90
21115;DHT22;10715;48.546;9.896;2023-11-21T02:04:21;5.40;99.90
21115;DHT22;10715;48.546;9.896;2023-11-21T02:06:47;5.40;99.90
21115;DHT22;10715;48.546;9.896;2023-11-21T02:09:13;5.40;99.90
21115;DHT22;10715;48.546;9.896;2023-11-21T02:11:40;5.40;99.90
21115;DHT22;10715;48.546;9.896;2023-11-21T02:14:06;5.40;99.90
21115;DHT22;10715;48.546;9.896;2023-11-21T02:16:34;5.40;99.90
21115;DHT22;10715;48.546;9.896;2023-11-21T02:19:01;5.40;99.90
21115;DHT22;10715;48.546;9.896;2023-11-21T02:21:29;5.40;99.90
21115;DHT22;10715;48.546;9.896;2023-11-21T02:23:56;5.40;99.90
21115;DHT22;10715;48.546;9.896;2023-11-21T02:26:21;5.40;99.90
21115;DHT22;10715;48.546;9.896;2023-11-21T02:28:47;5.30;99.90
21115;DHT22;10715;48.546;9.896;2023-11-21T02:31:13;5.30;99.90
21115;DHT22;10715;48.546;9.896;2023-11-21T02:33:39;5.30;99.90
21115;DHT22;10715;48.546;9.896;2023-11-21T02:36:04;5.30;99.90
21115;DHT22;10715;48.546;9.896;2023-11-21T02:38:31;5.20;99.90
21115;DHT22;10715;48.546;9.896;2023-11-21T02:40:57;5.20;99.90
21115;DHT22;10715;48.546;9.896;2023-11-21T02:43:24;5.20;99.90
21115;DHT22;10715;48.546;9.896;2023-11-21T02:45:50;5.10;99.90
21115;DHT22;10715;48.546;9.896;2023-11-21T03:05:06;5.00;99.90
21115;DHT22;10715;48.546;9.896;2023-11-21T03:07:34;5.00;99.90
21115;DHT22;10715;48.546;9.896;2023-11-21T03:10:00;5.00;99.90
21115;DHT22;10715;48.546;9.896;2023-11-21T03:12:26;4.90;99.90
21115;DHT22;10715;48.546;9.896;2023-11-21T03:14:52;4.90;99.90
21115;DHT22;10715;48.546;9.896;2023-11-21T03:17:19;4.80;99.90
21115;DHT22;10715;48.546;9.896;2023-11-21T03:19:45;4.80;99.90
21115;DHT22;10715;48.546;9.896;2023-11-21T03:22:10;4.80;99.90
21115;DHT22;10715;48.546;9.896;2023-11-21T03:24:37;4.80;99.90
21115;DHT22;10715;48.546;9.896;2023-11-21T03:27:04;4.80;99.90
21115;DHT22;10715;48.546;9.896;2023-11-21T03:29:30;4.80;99.90
21115;DHT22;10715;48.546;9.896;2023-11-21T03:31:57;4.80;99.90
21115;DHT22;10715;48.546;9.896;2023-11-21T03:34:27;4.80;99.90
21115;DHT22;10715;48.546;9.896;2023-11-21T03:36:53;4.80;99.90
21115;DHT22;10715;48.546;9.896;2023-11-21T03:39:23;4.90;99.90
21115;DHT22;10715;48.546;9.896;2023-11-21T03:41:51;4.90;99.90
21115;DHT22;10715;48.546;9.896;2023-11-21T03:44:17;4.90;99.90
21115;DHT22;10715;48.546;9.896;2023-11-21T03:46:44;4.90;99.90
21115;DHT22;10715;48.546;9.896;2023-11-21T03:49:11;4.90;99.90
21115;DHT22;10715;48.546;9.896;2023-11-21T03:51:38;4.90;99.90
21115;DHT22;10715;48.546;9.896;2023-11-21T03:54:05;4.90;99.90
21115;DHT22;10715;48.546;9.896;2023-11-21T03:56:31;4.90;99.90
21115;DHT22;10715;48.546;9.896;2023-11-21T03:58:57;4.80;99.90
21115;DHT22;10715;48.546;9.896;2023-11-21T04:01:23;4.90;99.90
21115;DHT22;10715;48.546;9.896;2023-11-21T04:03:49;4.90;99.90
21115;DHT22;10715;48.546;9.896;2023-11-21T04:06:16;4.90;99.90
21115;DHT22;10715;48.546;9.896;2023-11-21T04:08:44;4.90;99.90
21115;DHT22;10715;48.546;9.896;2023-11-21T04:11:11;4.90;99.90
21115;DHT22;10715;48.546;9.896;2023-11-21T04:13:41;4.90;99.90
21115;DHT22;10715;48.546;9.896;2023-11-21T04:16:08;4.90;99.90
21115;DHT22;10715;48.546;9.896;2023-11-21T04:18:36;4.90;99.90
21115;DHT22;10715;48.546;9.896;2023-11-21T04:21:04;5.00;99.90
21115;DHT22;10715;48.546;9.896;2023-11-21T04:23:30;4.90;99.90
21115;DHT22;10715;48.546;9.896;2023-11-21T04:25:57;4.90;99.90
21115;DHT22;10715;48.546;9.896;2023-11-21T04:28:25;4.90;99.90
21115;DHT22;10715;48.546;9.896;2023-11-21T04:30:51;4.90;99.90
21115;DHT22;10715;48.546;9.896;2023-11-21T04:33:17;4.90;99.90
21115;DHT22;10715;48.546;9.896;2023-11-21T04:35:43;5.00;99.90
21115;DHT22;10715;48.546;9.896;2023-11-21T04:38:09;4.90;99.90
21115;DHT22;10715;48.546;9.896;2023-11-21T04:40:34;5.00;99.90
21115;DHT22;10715;48.546;9.896;2023-11-21T04:43:00;5.00;99.90
21115;DHT22;10715;48.546;9.896;2023-11-21T04:45:27;5.00;99.90
21115;DHT22;10715;48.546;9.896;2023-11-21T04:47:52;5.00;99.90
21115;DHT22;10715;48.546;9.896;2023-11-21T04:50:18;5.00;99.90
21115;DHT22;10715;48.546;9.896;2023-11-21T04:52:45;5.00;99.90
21115;DHT22;10715;48.546;9.896;2023-11-21T04:55:13;5.00;99.90
21115;DHT22;10715;48.546;9.896;2023-11-21T04:57:39;5.00;99.90
21115;DHT22;10715;48.546;9.896;2023-11-21T05:00:08;5.00;99.90
21115;DHT22;10715;48.546;9.896;2023-11-21T05:02:34;5.00;99.90
21115;DHT22;10715;48.546;9.896;2023-11-21T05:05:01;5.10;99.90
21115;DHT22;10715;48.546;9.896;2023-11-21T05:07:27;5.00;99.90
21115;DHT22;10715;48.546;9.896;2023-11-21T05:09:57;5.10;99.90
21115;DHT22;10715;48.546;9.896;2023-11-21T05:12:25;5.10;99.90
21115;DHT22;10715;48.546;9.896;2023-11-21T05:14:52;5.10;99.90
21115;DHT22;10715;48.546;9.896;2023-11-21T05:17:18;5.00;99.90
21115;DHT22;10715;48.546;9.896;2023-11-21T05:19:44;5.00;99.90
21115;DHT22;10715;48.546;9.896;2023-11-21T05:22:11;5.00;99.90
21115;DHT22;10715;48.546;9.896;2023-11-21T05:24:38;5.10;99.90
21115;DHT22;10715;48.546;9.896;2023-11-21T05:27:06;5.10;99.90
21115;DHT22;10715;48.546;9.896;2023-11-21T05:29:32;5.10;99.90
21115;DHT22;10715;48.546;9.896;2023-11-21T05:31:58;5.10;99.90
21115;DHT22;10715;48.546;9.896;2023-11-21T05:34:23;5.10;99.90
21115;DHT22;10715;48.546;9.896;2023-11-21T05:36:50;5.10;99.90
21115;DHT22;10715;48.546;9.896;2023-11-21T05:39:16;5.10;99.90
21115;DHT22;10715;48.546;9.896;2023-11-21T05:41:46;5.10;99.90
21115;DHT22;10715;48.546;9.896;2023-11-21T05:44:12;5.10;99.90
21115;DHT22;10715;48.546;9.896;2023-11-21T05:46:40;5.10;99.90
21115;DHT22;10715;48.546;9.896;2023-11-21T05:49:06;5.10;99.90
21115;DHT22;10715;48.546;9.896;2023-11-21T05:51:34;5.20;99.90
21115;DHT22;10715;48.546;9.896;2023-11-21T05:54:01;5.20;99.90
21115;DHT22;10715;48.546;9.896;2023-11-21T05:56:27;5.20;99.90
21115;DHT22;10715;48.546;9.896;2023-11-21T05:58:53;5.20;99.90
21115;DHT22;10715;48.546;9.896;2023-11-21T06:01:19;5.20;99.90
21115;DHT22;10715;48.546;9.896;2023-11-21T06:03:45;5.20;99.90
21115;DHT22;10715;48.546;9.896;2023-11-21T06:06:11;5.20;99.90
21115;DHT22;10715;48.546;9.896;2023-11-21T06:08:37;5.20;99.90
21115;DHT22;10715;48.546;9.896;2023-11-21T06:11:03;5.20;99.90
21115;DHT22;10715;48.546;9.896;2023-11-21T06:13:30;5.20;99.90
21115;DHT22;10715;48.546;9.896;2023-11-21T06:15:57;5.20;99.90
21115;DHT22;10715;48.546;9.896;2023-11-21T06:18:23;5.20;99.90
21115;DHT22;10715;48.546;9.896;2023-11-21T06:20:49;5.20;99.90
21115;DHT22;10715;48.546;9.896;2023-11-21T06:23:15;5.20;99.90
21115;DHT22;10715;48.546;9.896;2023-11-21T06:25:42;5.20;99.90
21115;DHT22;10715;48.546;9.896;2023-11-21T06:28:07;5.20;99.90
21115;DHT22;10715;48.546;9.896;2023-11-21T06:30:33;5.20;99.90
21115;DHT22;10715;48.546;9.896;2023-11-21T06:32:59;5.20;99.90
21115;DHT22;10715;48.546;9.896;2023-11-21T06:35:25;5.20;99.90
21115;DHT22;10715;48.546;9.896;2023-11-21T06:37:53;5.20;99.90
21115;DHT22;10715;48.546;9.896;2023-11-21T06:40:19;5.20;99.90
21115;DHT22;10715;48.546;9.896;2023-11-21T06:42:45;5.20;99.90
21115;DHT22;10715;48.546;9.896;2023-11-21T06:45:13;5.20;99.90
21115;DHT22;10715;48.546;9.896;2023-11-21T06:47:40;5.20;99.90
21115;DHT22;10715;48.546;9.896;2023-11-21T06:50:06;5.20;99.90
21115;DHT22;10715;48.546;9.896;2023-11-21T06:52:32;5.20;99.90
21115;DHT22;10715;48.546;9.896;2023-11-21T06:54:58;5.20;99.90
21115;DHT22;10715;48.546;9.896;2023-11-21T06:57:25;5.20;99.90
21115;DHT22;10715;48.546;9.896;2023-11-21T06:59:51;5.20;99.90
21115;DHT22;10715;48.546;9.896;2023-11-21T07:02:17;5.20;99.90
21115;DHT22;10715;48.546;9.896;2023-11-21T07:04:45;5.20;99.90
21115;DHT22;10715;48.546;9.896;2023-11-21T07:07:12;5.10;99.90
21115;DHT22;10715;48.546;9.896;2023-11-21T07:09:38;5.10;99.90
21115;DHT22;10715;48.546;9.896;2023-11-21T07:12:04;5.10;99.90
21115;DHT22;10715;48.546;9.896;2023-11-21T07:14:33;5.10;99.90
21115;DHT22;10715;48.546;9.896;2023-11-21T07:16:59;5.10;99.90
21115;DHT22;10715;48.546;9.896;2023-11-21T07:19:25;5.10;99.90
21115;DHT22;10715;48.546;9.896;2023-11-21T07:21:50;5.10;99.90
21115;DHT22;10715;48.546;9.896;2023-11-21T07:24:17;5.10;99.90
21115;DHT22;10715;48.546;9.896;2023-11-21T07:26:42;5.20;99.90
21115;DHT22;10715;48.546;9.896;2023-11-21T07:29:08;5.20;99.90
21115;DHT22;10715;48.546;9.896;2023-11-21T07:31:34;5.20;99.90
21115;DHT22;10715;48.546;9.896;2023-11-21T07:34:00;5.20;99.90
21115;DHT22;10715;48.546;9.896;2023-11-21T07:36:26;5.30;99.90
21115;DHT22;10715;48.546;9.896;2023-11-21T07:38:53;5.30;99.90
21115;DHT22;10715;48.546;9.896;2023-11-21T07:41:19;5.30;99.90
21115;DHT22;10715;48.546;9.896;2023-11-21T07:43:45;5.30;99.90
21115;DHT22;10715;48.546;9.896;2023-11-21T07:46:12;5.30;99.90
21115;DHT22;10715;48.546;9.896;2023-11-21T07:48:39;5.30;99.90
21115;DHT22;10715;48.546;9.896;2023-11-21T07:51:05;5.30;99.90
21115;DHT22;10715;48.546;9.896;2023-11-21T07:53:32;5.40;99.90
21115;DHT22;10715;48.546;9.896;2023-11-21T07:56:08;5.40;99.90
21115;DHT22;10715;48.546;9.896;2023-11-21T07:58:37;5.40;99.90
21115;DHT22;10715;48.546;9.896;2023-11-21T08:01:03;5.40;99.90
21115;DHT22;10715;48.546;9.896;2023-11-21T08:03:29;5.40;99.90
21115;DHT22;10715;48.546;9.896;2023-11-21T08:05:59;5.40;99.90
21115;DHT22;10715;48.546;9.896;2023-11-21T08:08:25;5.40;99.90
21115;DHT22;10715;48.546;9.896;2023-11-21T08:10:51;5.50;99.90
21115;DHT22;10715;48.546;9.896;2023-11-21T08:13:27;5.50;99.90
21115;DHT22;10715;48.546;9.896;2023-11-21T08:15:57;5.50;99.90
21115;DHT22;10715;48.546;9.896;2023-11-21T08:18:28;5.50;99.90
21115;DHT22;10715;48.546;9.896;2023-11-21T08:20:55;5.50;99.90
21115;DHT22;10715;48.546;9.896;2023-11-21T08:23:21;5.60;99.90
21115;DHT22;10715;48.546;9.896;2023-11-21T08:25:51;5.60;99.90
21115;DHT22;10715;48.546;9.896;2023-11-21T08:28:17;5.60;99.90
21115;DHT22;10715;48.546;9.896;2023-11-21T08:30:43;5.70;99.90
21115;DHT22;10715;48.546;9.896;2023-11-21T08:33:09;5.70;99.90
21115;DHT22;10715;48.546;9.896;2023-11-21T08:35:37;5.70;99.90
21115;DHT22;10715;48.546;9.896;2023-11-21T08:38:03;5.80;99.90
21115;DHT22;10715;48.546;9.896;2023-11-21T08:40:29;5.80;99.90
21115;DHT22;10715;48.546;9.896;2023-11-21T08:42:55;5.80;99.90
21115;DHT22;10715;48.546;9.896;2023-11-21T08:45:21;5.90;99.90
21115;DHT22;10715;48.546;9.896;2023-11-21T08:47:48;5.90;99.90
21115;DHT22;10715;48.546;9.896;2023-11-21T08:50:14;5.90;99.90
21115;DHT22;10715;48.546;9.896;2023-11-21T08:52:40;5.90;99.90
21115;DHT22;10715;48.546;9.896;2023-11-21T08:55:08;6.00;99.90
21115;DHT22;10715;48.546;9.896;2023-11-21T08:57:35;6.00;99.90
21115;DHT22;10715;48.546;9.896;2023-11-21T09:00:03;6.00;99.90
21115;DHT22;10715;48.546;9.896;2023-11-21T09:02:30;6.10;99.90
21115;DHT22;10715;48.546;9.896;2023-11-21T09:04:57;6.10;99.90
21115;DHT22;10715;48.546;9.896;2023-11-21T09:07:24;6.10;99.90
21115;DHT22;10715;48.546;9.896;2023-11-21T09:09:50;6.20;99.90
21115;DHT22;10715;48.546;9.896;2023-11-21T09:12:16;6.30;99.90
21115;DHT22;10715;48.546;9.896;2023-11-21T09:14:43;6.30;99.90
21115;DHT22;10715;48.546;9.896;2023-11-21T09:17:09;6.40;99.90
21115;DHT22;10715;48.546;9.896;2023-11-21T09:19:38;6.40;99.90
21115;DHT22;10715;48.546;9.896;2023-11-21T09:22:04;6.50;99.90
21115;DHT22;10715;48.546;9.896;2023-11-21T09:24:33;6.50;99.90
21115;DHT22;10715;48.546;9.896;2023-11-21T09:27:00;6.50;99.90
21115;DHT22;10715;48.546;9.896;2023-11-21T09:29:27;6.60;99.90
21115;DHT22;10715;48.546;9.896;2023-11-21T09:31:52;6.60;99.90
21115;DHT22;10715;48.546;9.896;2023-11-21T09:34:20;6.60;99.90
21115;DHT22;10715;48.546;9.896;2023-11-21T09:36:47;6.70;99.90
21115;DHT22;10715;48.546;9.896;2023-11-21T09:39:13;6.70;99.90
21115;DHT22;10715;48.546;9.896;2023-11-21T09:41:50;6.70;99.90
21115;DHT22;10715;48.546;9.896;2023-11-21T09:44:26;6.70;99.90
21115;DHT22;10715;48.546;9.896;2023-11-21T09:46:59;6.70;99.90
21115;DHT22;10715;48.546;9.896;2023-11-21T09:49:26;6.80;99.90
21115;DHT22;10715;48.546;9.896;2023-11-21T09:51:55;6.80;99.90
21115;DHT22;10715;48.546;9.896;2023-11-21T09:54:24;6.80;99.90
21115;DHT22;10715;48.546;9.896;2023-11-21T09:56:50;6.80;99.90
21115;DHT22;10715;48.546;9.896;2023-11-21T09:59:16;6.80;99.90
21115;DHT22;10715;48.546;9.896;2023-11-21T10:01:42;6.80;99.90
21115;DHT22;10715;48.546;9.896;2023-11-21T10:04:11;6.90;99.90
21115;DHT22;10715;48.546;9.896;2023-11-21T10:06:41;6.90;99.90
21115;DHT22;10715;48.546;9.896;2023-11-21T10:09:10;6.90;99.90
21115;DHT22;10715;48.546;9.896;2023-11-21T10:11:41;6.90;99.90
21115;DHT22;10715;48.546;9.896;2023-11-21T10:14:09;7.00;99.90
21115;DHT22;10715;48.546;9.896;2023-11-21T10:16:38;7.00;99.90
21115;DHT22;10715;48.546;9.896;2023-11-21T10:19:05;7.00;99.90
21115;DHT22;10715;48.546;9.896;2023-11-21T10:21:35;7.00;99.90
21115;DHT22;10715;48.546;9.896;2023-11-21T10:24:01;7.10;99.90
21115;DHT22;10715;48.546;9.896;2023-11-21T10:26:28;7.10;99.90
21115;DHT22;10715;48.546;9.896;2023-11-21T10:29:01;7.10;99.90
21115;DHT22;10715;48.546;9.896;2023-11-21T10:31:30;7.10;99.90
21115;DHT22;10715;48.546;9.896;2023-11-21T10:34:15;7.20;99.90
21115;DHT22;10715;48.546;9.896;2023-11-21T10:36:41;7.20;99.90
21115;DHT22;10715;48.546;9.896;2023-11-21T10:39:07;7.20;99.90
21115;DHT22;10715;48.546;9.896;2023-11-21T10:41:35;7.20;99.90
21115;DHT22;10715;48.546;9.896;2023-11-21T10:44:01;7.20;99.90
21115;DHT22;10715;48.546;9.896;2023-11-21T10:46:32;7.20;99.90
21115;DHT22;10715;48.546;9.896;2023-11-21T10:48:58;7.20;99.90
21115;DHT22;10715;48.546;9.896;2023-11-21T10:51:23;7.20;99.90
21115;DHT22;10715;48.546;9.896;2023-11-21T10:53:53;7.20;99.90
21115;DHT22;10715;48.546;9.896;2023-11-21T10:56:23;7.20;99.90
21115;DHT22;10715;48.546;9.896;2023-11-21T10:58:49;7.20;99.90
21115;DHT22;10715;48.546;9.896;2023-11-21T11:01:19;7.20;99.90
21115;DHT22;10715;48.546;9.896;2023-11-21T11:03:47;7.10;99.90
21115;DHT22;10715;48.546;9.896;2023-11-21T11:06:14;7.10;99.90
21115;DHT22;10715;48.546;9.896;2023-11-21T11:08:40;7.10;99.90
21115;DHT22;10715;48.546;9.896;2023-11-21T11:11:06;7.10;99.90
21115;DHT22;10715;48.546;9.896;2023-11-21T11:13:33;7.10;99.90
21115;DHT22;10715;48.546;9.896;2023-11-21T11:16:00;7.10;99.90
21115;DHT22;10715;48.546;9.896;2023-11-21T11:18:30;7.10;99.90
21115;DHT22;10715;48.546;9.896;2023-11-21T11:26:46;7.20;99.90
21115;DHT22;10715;48.546;9.896;2023-11-21T11:32:29;7.20;99.90
21115;DHT22;10715;48.546;9.896;2023-11-21T11:35:13;7.20;99.90
21115;DHT22;10715;48.546;9.896;2023-11-21T11:37:43;7.20;99.90
21115;DHT22;10715;48.546;9.896;2023-11-21T11:40:11;7.30;99.90
21115;DHT22;10715;48.546;9.896;2023-11-21T11:42:37;7.30;99.90
21115;DHT22;10715;48.546;9.896;2023-11-21T11:45:17;7.40;99.90
21115;DHT22;10715;48.546;9.896;2023-11-21T11:47:44;7.40;99.90
21115;DHT22;10715;48.546;9.896;2023-11-21T11:50:13;7.40;99.90
21115;DHT22;10715;48.546;9.896;2023-11-21T11:52:42;7.40;99.90
21115;DHT22;10715;48.546;9.896;2023-11-21T11:55:10;7.40;99.90
21115;DHT22;10715;48.546;9.896;2023-11-21T11:57:37;7.50;99.90
21115;DHT22;10715;48.546;9.896;2023-11-21T12:00:33;7.50;99.90
21115;DHT22;10715;48.546;9.896;2023-11-21T12:03:03;7.40;99.90
21115;DHT22;10715;48.546;9.896;2023-11-21T12:05:31;7.40;99.90
21115;DHT22;10715;48.546;9.896;2023-11-21T12:08:10;7.40;99.90
21115;DHT22;10715;48.546;9.896;2023-11-21T12:10:38;7.40;99.90
21115;DHT22;10715;48.546;9.896;2023-11-21T12:13:10;7.40;99.90
21115;DHT22;10715;48.546;9.896;2023-11-21T12:15:39;7.40;99.90
21115;DHT22;10715;48.546;9.896;2023-11-21T12:18:06;7.40;99.90
21115;DHT22;10715;48.546;9.896;2023-11-21T12:20:32;7.40;99.90
21115;DHT22;10715;48.546;9.896;2023-11-21T12:23:04;7.40;99.90
21115;DHT22;10715;48.546;9.896;2023-11-21T12:25:31;7.40;99.90
21115;DHT22;10715;48.546;9.896;2023-11-21T12:28:02;7.30;99.90
21115;DHT22;10715;48.546;9.896;2023-11-21T12:30:33;7.40;99.90
21115;DHT22;10715;48.546;9.896;2023-11-21T12:33:01;7.40;99.90
21115;DHT22;10715;48.546;9.896;2023-11-21T12:35:32;7.30;99.90
21115;DHT22;10715;48.546;9.896;2023-11-21T12:38:03;7.40;99.90
21115;DHT22;10715;48.546;9.896;2023-11-21T12:40:29;7.40;99.90
21115;DHT22;10715;48.546;9.896;2023-11-21T12:42:56;7.40;99.90
21115;DHT22;10715;48.546;9.896;2023-11-21T12:45:23;7.40;99.90
21115;DHT22;10715;48.546;9.896;2023-11-21T12:48:00;7.40;99.90
21115;DHT22;10715;48.546;9.896;2023-11-21T12:50:30;7.40;99.90
21115;DHT22;10715;48.546;9.896;2023-11-21T12:53:02;7.40;99.90
21115;DHT22;10715;48.546;9.896;2023-11-21T12:55:30;7.40;99.90
21115;DHT22;10715;48.546;9.896;2023-11-21T12:57:57;7.40;99.90
21115;DHT22;10715;48.546;9.896;2023-11-21T13:00:33;7.50;99.90
21115;DHT22;10715;48.546;9.896;2023-11-21T13:03:03;7.50;99.90
21115;DHT22;10715;48.546;9.896;2023-11-21T13:05:32;7.50;99.90
21115;DHT22;10715;48.546;9.896;2023-11-21T13:07:59;7.50;99.90
21115;DHT22;10715;48.546;9.896;2023-11-21T13:10:29;7.50;99.90
21115;DHT22;10715;48.546;9.896;2023-11-21T13:13:00;7.50;99.90
21115;DHT22;10715;48.546;9.896;2023-11-21T13:15:29;7.50;99.90
21115;DHT22;10715;48.546;9.896;2023-11-21T13:17:57;7.50;99.90
21115;DHT22;10715;48.546;9.896;2023-11-21T13:20:27;7.50;99.90
21115;DHT22;10715;48.546;9.896;2023-11-21T13:22:54;7.50;99.90
21115;DHT22;10715;48.546;9.896;2023-11-21T13:25:23;7.50;99.90
21115;DHT22;10715;48.546;9.896;2023-11-21T13:27:49;7.50;99.90
21115;DHT22;10715;48.546;9.896;2023-11-21T13:30:16;7.40;99.90
21115;DHT22;10715;48.546;9.896;2023-11-21T13:32:45;7.50;99.90
21115;DHT22;10715;48.546;9.896;2023-11-21T13:35:17;7.50;99.90
21115;DHT22;10715;48.546;9.896;2023-11-21T13:37:51;7.50;99.90
21115;DHT22;10715;48.546;9.896;2023-11-21T13:40:21;7.50;99.90
21115;DHT22;10715;48.546;9.896;2023-11-21T13:42:54;7.50;99.90
21115;DHT22;10715;48.546;9.896;2023-11-21T13:45:21;7.50;99.90
21115;DHT22;10715;48.546;9.896;2023-11-21T13:47:52;7.50;99.90
21115;DHT22;10715;48.546;9.896;2023-11-21T13:50:21;7.50;99.90
21115;DHT22;10715;48.546;9.896;2023-11-21T13:52:52;7.50;99.90
21115;DHT22;10715;48.546;9.896;2023-11-21T13:55:20;7.50;99.90
21115;DHT22;10715;48.546;9.896;2023-11-21T13:57:47;7.50;99.90
21115;DHT22;10715;48.546;9.896;2023-11-21T14:00:18;7.50;99.90
21115;DHT22;10715;48.546;9.896;2023-11-21T14:03:03;7.50;99.90
21115;DHT22;10715;48.546;9.896;2023-11-21T14:05:34;7.50;99.90
21115;DHT22;10715;48.546;9.896;2023-11-21T14:08:00;7.50;99.90
21115;DHT22;10715;48.546;9.896;2023-11-21T14:10:32;7.50;99.90
21115;DHT22;10715;48.546;9.896;2023-11-21T14:13:09;7.50;99.90
21115;DHT22;10715;48.546;9.896;2023-11-21T14:15:41;7.50;99.90
21115;DHT22;10715;48.546;9.896;2023-11-21T14:18:12;7.50;99.90
21115;DHT22;10715;48.546;9.896;2023-11-21T14:20:43;7.50;99.90
21115;DHT22;10715;48.546;9.896;2023-11-21T14:23:10;7.40;99.90
21115;DHT22;10715;48.546;9.896;2023-11-21T14:25:36;7.40;99.90
21115;DHT22;10715;48.546;9.896;2023-11-21T14:28:06;7.40;99.90
21115;DHT22;10715;48.546;9.896;2023-11-21T14:30:34;7.40;99.90
21115;DHT22;10715;48.546;9.896;2023-11-21T14:33:05;7.40;99.90
21115;DHT22;10715;48.546;9.896;2023-11-21T14:35:31;7.40;99.90
21115;DHT22;10715;48.546;9.896;2023-11-21T14:37:59;7.40;99.90
21115;DHT22;10715;48.546;9.896;2023-11-21T14:40:26;7.40;99.90
21115;DHT22;10715;48.546;9.896;2023-11-21T14:42:57;7.40;99.90
21115;DHT22;10715;48.546;9.896;2023-11-21T14:45:23;7.40;99.90
21115;DHT22;10715;48.546;9.896;2023-11-21T14:47:51;7.30;99.90
21115;DHT22;10715;48.546;9.896;2023-11-21T14:50:36;7.40;99.90
21115;DHT22;10715;48.546;9.896;2023-11-21T14:53:11;7.30;99.90
21115;DHT22;10715;48.546;9.896;2023-11-21T14:55:39;7.30;99.90
21115;DHT22;10715;48.546;9.896;2023-11-21T14:58:17;7.30;99.90
21115;DHT22;10715;48.546;9.896;2023-11-21T15:00:56;7.30;99.90
21115;DHT22;10715;48.546;9.896;2023-11-21T15:03:27;7.30;99.90
21115;DHT22;10715;48.546;9.896;2023-11-21T15:05:59;7.30;99.90
21115;DHT22;10715;48.546;9.896;2023-11-21T15:08:37;7.20;99.90
21115;DHT22;10715;48.546;9.896;2023-11-21T15:11:08;7.20;99.90
21115;DHT22;10715;48.546;9.896;2023-11-21T15:13:40;7.20;99.90
21115;DHT22;10715;48.546;9.896;2023-11-21T15:16:07;7.20;99.90
21115;DHT22;10715;48.546;9.896;2023-11-21T15:18:35;7.20;99.90
21115;DHT22;10715;48.546;9.896;2023-11-21T15:21:02;7.20;99.90
21115;DHT22;10715;48.546;9.896;2023-11-21T15:23:30;7.20;99.90
21115;DHT22;10715;48.546;9.896;2023-11-21T15:26:00;7.20;99.90
21115;DHT22;10715;48.546;9.896;2023-11-21T15:28:28;7.20;99.90
21115;DHT22;10715;48.546;9.896;2023-11-21T15:30:54;7.20;99.90
21115;DHT22;10715;48.546;9.896;2023-11-21T15:33:20;7.20;99.90
21115;DHT22;10715;48.546;9.896;2023-11-21T15:35:46;7.20;99.90
21115;DHT22;10715;48.546;9.896;2023-11-21T15:38:11;7.20;99.90
21115;DHT22;10715;48.546;9.896;2023-11-21T15:40:39;7.20;99.90
21115;DHT22;10715;48.546;9.896;2023-11-21T15:43:04;7.10;99.90
21115;DHT22;10715;48.546;9.896;2023-11-21T15:45:32;7.10;99.90
21115;DHT22;10715;48.546;9.896;2023-11-21T15:47:58;7.10;99.90
21115;DHT22;10715;48.546;9.896;2023-11-21T15:50:24;7.10;99.90
21115;DHT22;10715;48.546;9.896;2023-11-21T15:52:51;7.10;99.90
21115;DHT22;10715;48.546;9.896;2023-11-21T15:55:17;7.10;99.90
21115;DHT22;10715;48.546;9.896;2023-11-21T15:57:43;7.10;99.90
21115;DHT22;10715;48.546;9.896;2023-11-21T16:00:09;7.00;99.90
21115;DHT22;10715;48.546;9.896;2023-11-21T16:02:42;7.00;99.90
21115;DHT22;10715;48.546;9.896;2023-11-21T16:05:08;7.00;99.90
21115;DHT22;10715;48.546;9.896;2023-11-21T16:07:34;7.00;99.90
21115;DHT22;10715;48.546;9.896;2023-11-21T16:10:02;7.00;99.90
21115;DHT22;10715;48.546;9.896;2023-11-21T16:12:29;7.00;99.90
21115;DHT22;10715;48.546;9.896;2023-11-21T16:14:54;7.00;99.90
21115;DHT22;10715;48.546;9.896;2023-11-21T16:17:20;7.00;99.90